Time;durP1;ratioP1;P1;durP2;ratioP2;P2;SDS_P1;SDS_P2;PMS_P1;PMS_P2;Temp;Humidity;BMP_temperature;BMP_pressure;BME280_temperature;BME280_humidity;BME280_pressure;Samples;Min_cycle;Max_cycle;Signal;HPM_P1;HPM_P2
2021/08/05 00:00:42;;;;;;;4.97;3.40;;;23.30;62.30;;;;;;5014441;28;20021;-91
2021/08/05 00:03:09;;;;;;;4.65;3.50;;;23.30;62.30;;;;;;5014357;28;20026;-91
2021/08/05 00:05:34;;;;;;;5.45;3.83;;;23.30;62.20;;;;;;5013067;28;20120;-90
2021/08/05 00:08:00;;;;;;;4.18;3.50;;;23.30;62.00;;;;;;4997206;28;20448;-92
2021/08/05 00:10:26;;;;;;;5.88;3.70;;;23.20;61.90;;;;;;5016077;28;20032;-91
2021/08/05 00:12:52;;;;;;;5.25;3.22;;;23.30;61.80;;;;;;5015749;28;20022;-90
2021/08/05 00:15:19;;;;;;;4.78;3.10;;;23.20;61.70;;;;;;4997936;28;20057;-90
2021/08/05 00:17:45;;;;;;;4.32;3.22;;;23.20;61.60;;;;;;4997277;28;20366;-91
2021/08/05 00:20:11;;;;;;;5.13;3.40;;;23.20;61.50;;;;;;4996941;28;20041;-90
2021/08/05 00:22:37;;;;;;;5.97;3.30;;;23.20;61.40;;;;;;4996683;28;20157;-90
2021/08/05 00:25:03;;;;;;;4.05;3.08;;;23.10;61.30;;;;;;4996298;28;20512;-90
2021/08/05 00:27:29;;;;;;;4.85;3.00;;;23.10;61.20;;;;;;4996876;28;20052;-89
2021/08/05 00:29:55;;;;;;;5.38;3.08;;;23.10;61.10;;;;;;5014076;28;20472;-89
2021/08/05 00:32:20;;;;;;;3.88;2.80;;;23.10;61.00;;;;;;4996212;28;20030;-89
2021/08/05 00:34:46;;;;;;;3.28;2.80;;;23.10;61.10;;;;;;4996363;28;20026;-89
2021/08/05 00:37:12;;;;;;;3.40;2.70;;;23.00;61.20;;;;;;5012582;28;20069;-89
2021/08/05 00:39:37;;;;;;;3.38;2.60;;;23.10;61.20;;;;;;5012575;28;20026;-89
2021/08/05 00:42:04;;;;;;;3.20;2.60;;;23.00;61.20;;;;;;4996557;28;20022;-89
2021/08/05 00:44:30;;;;;;;3.00;2.58;;;23.00;61.10;;;;;;5014054;28;20154;-90
2021/08/05 00:46:56;;;;;;;3.67;2.80;;;23.00;61.10;;;;;;5012697;28;20034;-90
2021/08/05 00:49:22;;;;;;;3.90;2.58;;;23.00;61.20;;;;;;4996859;28;20026;-89
2021/08/05 00:51:47;;;;;;;3.40;2.60;;;22.90;61.20;;;;;;5017899;28;20037;-89
2021/08/05 00:54:13;;;;;;;3.10;2.60;;;22.90;61.30;;;;;;5017511;28;20033;-90
2021/08/05 00:56:39;;;;;;;3.28;2.50;;;22.90;61.30;;;;;;5017085;28;20369;-89
2021/08/05 00:59:04;;;;;;;2.88;2.50;;;22.90;61.40;;;;;;4999466;28;20025;-88
2021/08/05 01:01:37;;;;;;;3.00;2.33;;;22.90;61.50;;;;;;5017112;28;20030;-89
2021/08/05 01:04:04;;;;;;;3.03;2.30;;;22.80;61.40;;;;;;5000615;28;20061;-94
2021/08/05 01:06:45;;;;;;;3.00;2.50;;;22.90;61.50;;;;;;5001171;28;20128;-90
2021/08/05 01:09:23;;;;;;;3.33;2.60;;;22.80;61.60;;;;;;5017145;28;20085;-90
2021/08/05 01:12:08;;;;;;;2.50;2.30;;;22.70;61.40;;;;;;5017161;28;20037;-90
2021/08/05 01:14:39;;;;;;;3.33;2.60;;;22.70;61.50;;;;;;4999020;28;20086;-91
2021/08/05 01:17:08;;;;;;;2.72;2.30;;;22.60;61.50;;;;;;4999023;28;20487;-91
2021/08/05 01:19:47;;;;;;;4.30;3.03;;;22.60;61.70;;;;;;4999580;28;20491;-91
2021/08/05 01:22:30;;;;;;;5.00;3.10;;;22.50;61.80;;;;;;4999632;28;20026;-92
2021/08/05 01:25:24;;;;;;;4.10;3.20;;;22.40;62.30;;;;;;4999025;28;20030;-92
2021/08/05 01:27:51;;;;;;;3.97;3.20;;;22.40;62.10;;;;;;4998016;28;20045;-92
2021/08/05 01:30:18;;;;;;;4.93;3.20;;;22.30;62.40;;;;;;5015698;28;20026;-91
2021/08/05 01:32:45;;;;;;;3.75;3.08;;;22.20;62.70;;;;;;4999458;28;20026;-91
2021/08/05 01:35:11;;;;;;;4.10;3.13;;;22.10;62.70;;;;;;5016832;28;20033;-91
2021/08/05 01:37:40;;;;;;;4.03;2.92;;;22.10;63.10;;;;;;5019829;28;20043;-91
2021/08/05 01:40:07;;;;;;;5.22;2.63;;;22.00;63.40;;;;;;4980575;28;20034;-90
2021/08/05 01:42:33;;;;;;;3.15;2.58;;;21.90;63.40;;;;;;4979490;28;20037;-91
2021/08/05 01:44:59;;;;;;;3.97;2.80;;;21.90;63.70;;;;;;4979502;28;20031;-90
2021/08/05 01:47:26;;;;;;;3.90;2.83;;;21.80;63.90;;;;;;4979606;28;20033;-90
2021/08/05 01:49:52;;;;;;;3.78;3.00;;;21.70;64.20;;;;;;4979451;28;20469;-90
2021/08/05 01:52:19;;;;;;;4.47;3.08;;;21.70;64.60;;;;;;4979890;28;20031;-89
2021/08/05 01:54:46;;;;;;;3.92;2.90;;;21.70;64.80;;;;;;4979219;28;20022;-90
2021/08/05 01:57:12;;;;;;;3.33;2.90;;;21.60;65.00;;;;;;4996439;28;20030;-89
2021/08/05 01:59:38;;;;;;;4.22;3.10;;;21.60;66.00;;;;;;4979134;28;20030;-90
2021/08/05 02:02:05;;;;;;;3.90;3.00;;;21.60;65.50;;;;;;4995573;28;20113;-91
2021/08/05 02:04:50;;;;;;;4.85;3.30;;;21.70;65.50;;;;;;4996132;28;20030;-89
2021/08/05 02:07:27;;;;;;;5.05;3.35;;;21.70;66.40;;;;;;4979092;28;20030;-90
2021/08/05 02:10:16;;;;;;;4.30;2.90;;;21.70;66.70;;;;;;4996171;28;20546;-90
2021/08/05 02:13:00;;;;;;;3.83;3.17;;;21.70;66.80;;;;;;4979084;28;20473;-90
2021/08/05 02:15:28;;;;;;;4.05;3.30;;;21.80;67.10;;;;;;4995950;28;20056;-91
2021/08/05 02:17:55;;;;;;;4.32;3.40;;;21.80;66.20;;;;;;4979035;28;20509;-90
2021/08/05 02:20:22;;;;;;;5.70;3.38;;;21.80;66.30;;;;;;4978949;28;20503;-90
2021/08/05 02:22:48;;;;;;;4.78;3.53;;;21.80;66.50;;;;;;4978736;28;20030;-90
2021/08/05 02:25:14;;;;;;;7.32;3.60;;;21.90;66.80;;;;;;4995720;28;20054;-91
2021/08/05 02:27:42;;;;;;;5.05;3.67;;;21.80;66.90;;;;;;4996035;28;20061;-89
2021/08/05 02:30:09;;;;;;;4.60;3.53;;;21.90;67.20;;;;;;4995740;28;20422;-89
2021/08/05 02:32:37;;;;;;;4.35;3.58;;;21.90;67.30;;;;;;4978456;28;20117;-89
2021/08/05 02:35:06;;;;;;;3.85;2.95;;;21.80;67.50;;;;;;4995576;28;20026;-89
2021/08/05 02:37:32;;;;;;;4.30;3.47;;;21.80;67.50;;;;;;4995685;28;20034;-89
2021/08/05 02:39:58;;;;;;;4.03;3.40;;;21.90;67.70;;;;;;4996165;28;20037;-90
2021/08/05 02:42:24;;;;;;;5.30;3.40;;;21.90;67.70;;;;;;4995771;28;20077;-90
2021/08/05 02:44:51;;;;;;;3.90;3.20;;;21.90;67.70;;;;;;4995404;28;20018;-89
2021/08/05 02:47:18;;;;;;;7.85;3.30;;;21.90;67.80;;;;;;4979114;28;20069;-90
2021/08/05 02:49:46;;;;;;;5.80;4.15;;;21.80;67.80;;;;;;4994213;28;20496;-89
2021/08/05 02:52:12;;;;;;;4.60;3.50;;;21.80;67.70;;;;;;4995381;28;20094;-89
2021/08/05 02:54:38;;;;;;;5.55;3.30;;;21.80;67.80;;;;;;4994688;28;20026;-88
2021/08/05 02:57:04;;;;;;;5.63;3.85;;;21.80;67.50;;;;;;4994844;28;20113;-89
2021/08/05 02:59:30;;;;;;;6.60;3.72;;;21.80;67.50;;;;;;5012239;28;20054;-90
2021/08/05 03:01:57;;;;;;;6.18;3.90;;;21.80;67.50;;;;;;5005039;28;20023;-89
2021/08/05 03:04:29;;;;;;;5.32;4.07;;;21.80;67.60;;;;;;4981829;28;20034;-89
2021/08/05 03:06:55;;;;;;;6.80;4.43;;;21.70;67.50;;;;;;4987504;28;20044;-90
2021/08/05 03:09:20;;;;;;;6.75;4.18;;;21.70;67.80;;;;;;4987687;28;20638;-90
2021/08/05 03:11:46;;;;;;;6.63;4.50;;;21.60;67.70;;;;;;5007106;28;20030;-90
2021/08/05 03:14:12;;;;;;;6.65;4.38;;;21.60;67.70;;;;;;4989529;28;20061;-88
2021/08/05 03:16:38;;;;;;;6.72;4.40;;;21.60;67.70;;;;;;5013305;28;20034;-87
2021/08/05 03:19:04;;;;;;;7.88;4.07;;;21.60;67.90;;;;;;4990861;28;20436;-90
2021/08/05 03:21:30;;;;;;;5.07;3.65;;;21.50;67.80;;;;;;4999175;28;20036;-90
2021/08/05 03:23:55;;;;;;;6.10;4.38;;;21.50;67.90;;;;;;4978194;28;20374;-89
2021/08/05 03:26:21;;;;;;;6.13;3.95;;;21.50;68.10;;;;;;4997129;28;20033;-90
2021/08/05 03:28:47;;;;;;;6.93;3.97;;;21.50;68.20;;;;;;4981139;28;20491;-90
2021/08/05 03:31:12;;;;;;;5.63;3.97;;;21.40;68.30;;;;;;4997662;28;20030;-90
2021/08/05 03:33:38;;;;;;;5.40;4.10;;;21.40;68.30;;;;;;4978700;28;20029;-90
2021/08/05 03:36:04;;;;;;;6.22;4.13;;;21.40;68.50;;;;;;4977550;28;20492;-90
2021/08/05 03:38:30;;;;;;;5.65;3.90;;;21.30;68.50;;;;;;4994980;28;20031;-88
2021/08/05 03:40:56;;;;;;;6.45;4.30;;;21.30;68.50;;;;;;4976870;28;20468;-88
2021/08/05 03:43:21;;;;;;;6.80;4.55;;;21.30;68.70;;;;;;4977038;28;20034;-88
2021/08/05 03:45:47;;;;;;;6.78;5.15;;;21.20;68.80;;;;;;4977399;28;20037;-88
2021/08/05 03:48:13;;;;;;;6.97;5.32;;;21.20;69.00;;;;;;4994917;28;20038;-88
2021/08/05 03:50:39;;;;;;;7.47;5.30;;;21.20;69.10;;;;;;4981417;28;20030;-89
2021/08/05 03:53:04;;;;;;;9.82;6.30;;;21.10;69.30;;;;;;4996467;28;20030;-90
2021/08/05 03:55:30;;;;;;;7.40;5.63;;;21.10;69.60;;;;;;5014341;28;20350;-88
2021/08/05 03:57:56;;;;;;;7.65;6.38;;;21.10;70.00;;;;;;4996618;28;20041;-88
2021/08/05 04:00:22;;;;;;;8.25;6.40;;;21.00;70.50;;;;;;5013734;28;20033;-89
2021/08/05 04:02:47;;;;;;;7.70;5.70;;;21.00;71.30;;;;;;5010329;28;20512;-87
2021/08/05 04:05:13;;;;;;;6.82;5.93;;;20.90;70.90;;;;;;4994390;28;20030;-88
2021/08/05 04:07:39;;;;;;;7.70;6.03;;;20.90;71.20;;;;;;4976952;28;20036;-87
2021/08/05 04:10:05;;;;;;;9.35;5.82;;;20.90;71.50;;;;;;4978010;28;20023;-89
2021/08/05 04:12:31;;;;;;;6.15;5.13;;;20.80;71.50;;;;;;4977716;28;20030;-89
2021/08/05 04:14:57;;;;;;;6.63;5.40;;;20.80;71.70;;;;;;4995984;28;20052;-88
2021/08/05 04:17:23;;;;;;;7.75;6.05;;;20.90;71.70;;;;;;4978639;28;20400;-89
2021/08/05 04:19:48;;;;;;;7.13;5.70;;;20.90;71.80;;;;;;4995557;28;20030;-89
2021/08/05 04:22:14;;;;;;;8.02;5.88;;;20.80;72.00;;;;;;4994222;28;20034;-89
2021/08/05 04:24:40;;;;;;;6.22;5.60;;;20.90;72.30;;;;;;4977746;28;20159;-89
2021/08/05 04:27:06;;;;;;;7.22;6.03;;;20.90;72.20;;;;;;4997952;28;20108;-89
2021/08/05 04:29:32;;;;;;;7.85;6.65;;;20.90;72.30;;;;;;4979910;28;20056;-90
2021/08/05 04:31:58;;;;;;;8.18;6.45;;;21.00;72.50;;;;;;4997152;28;20085;-88
2021/08/05 04:34:24;;;;;;;8.65;6.20;;;20.90;72.60;;;;;;4997860;28;20030;-89
2021/08/05 04:36:49;;;;;;;8.80;6.35;;;20.90;73.10;;;;;;4980309;28;20038;-90
2021/08/05 04:39:15;;;;;;;7.63;5.50;;;21.00;73.00;;;;;;4980547;28;20388;-89
2021/08/05 04:41:40;;;;;;;6.35;5.35;;;21.00;72.80;;;;;;4997860;28;20037;-89
2021/08/05 04:44:06;;;;;;;6.75;5.60;;;21.00;72.70;;;;;;4980929;28;20057;-90
2021/08/05 04:46:32;;;;;;;8.32;5.93;;;21.10;72.60;;;;;;4998352;28;20026;-88
2021/08/05 04:48:59;;;;;;;8.40;5.40;;;21.20;72.70;;;;;;4980593;28;20472;-89
2021/08/05 04:51:25;;;;;;;8.95;6.50;;;21.20;72.60;;;;;;4981425;28;20031;-89
2021/08/05 04:53:50;;;;;;;7.93;6.25;;;21.30;72.60;;;;;;5017530;28;20097;-89
2021/08/05 04:56:16;;;;;;;8.45;5.70;;;21.40;72.50;;;;;;4999559;28;20053;-89
2021/08/05 04:58:42;;;;;;;8.90;5.85;;;21.40;72.40;;;;;;5017318;28;20132;-89
2021/08/05 05:01:07;;;;;;;10.13;7.00;;;21.50;72.30;;;;;;4999322;28;20065;-89
2021/08/05 05:03:33;;;;;;;9.35;7.22;;;21.50;72.30;;;;;;4999545;28;20076;-89
2021/08/05 05:05:59;;;;;;;9.02;6.60;;;21.60;72.40;;;;;;5017016;28;20030;-89
2021/08/05 05:08:25;;;;;;;9.48;6.13;;;21.60;72.30;;;;;;5015553;28;20022;-89
2021/08/05 05:10:56;;;;;;;7.68;5.57;;;21.70;72.90;;;;;;5016711;28;20033;-89
2021/08/05 05:13:21;;;;;;;9.10;6.93;;;21.80;72.10;;;;;;4998873;28;20034;-88
2021/08/05 05:15:47;;;;;;;8.13;6.60;;;21.90;72.00;;;;;;5017160;28;20396;-88
2021/08/05 05:18:17;;;;;;;8.73;6.80;;;21.90;71.70;;;;;;4999575;28;20041;-89
2021/08/05 05:20:43;;;;;;;9.32;6.68;;;21.90;71.70;;;;;;4999398;28;20100;-88
2021/08/05 05:23:09;;;;;;;9.15;7.53;;;22.00;71.80;;;;;;5016478;28;20029;-89
2021/08/05 05:25:36;;;;;;;9.35;6.68;;;22.10;71.70;;;;;;5017697;28;20480;-89
2021/08/05 05:28:02;;;;;;;8.43;6.93;;;22.20;71.60;;;;;;4998557;28;20503;-88
2021/08/05 05:30:28;;;;;;;9.25;6.90;;;22.30;71.40;;;;;;4998743;28;20049;-90
2021/08/05 05:32:54;;;;;;;9.27;6.32;;;22.40;71.30;;;;;;4986851;28;20028;-88
2021/08/05 05:35:20;;;;;;;7.85;6.28;;;22.50;71.20;;;;;;5002218;28;20484;-90
2021/08/05 05:37:49;;;;;;;8.05;6.07;;;22.60;70.90;;;;;;5008862;28;20070;-88
2021/08/05 05:40:15;;;;;;;7.70;6.53;;;22.80;70.90;;;;;;4997797;28;20468;-89
2021/08/05 05:42:41;;;;;;;7.47;5.68;;;23.00;70.50;;;;;;4998346;28;20535;-89
2021/08/05 05:45:09;;;;;;;7.32;6.00;;;23.10;70.20;;;;;;4992974;28;20026;-89
2021/08/05 05:47:35;;;;;;;7.32;6.50;;;23.30;69.70;;;;;;4987033;28;20437;-88
2021/08/05 05:50:02;;;;;;;8.43;6.25;;;23.30;69.40;;;;;;5002429;28;20113;-93
2021/08/05 05:52:27;;;;;;;10.23;8.15;;;23.40;69.10;;;;;;4997236;28;20042;-88
2021/08/05 05:54:53;;;;;;;9.60;7.15;;;23.50;69.10;;;;;;4981218;28;20022;-91
2021/08/05 05:57:19;;;;;;;8.50;6.57;;;23.60;69.00;;;;;;4997717;28;20117;-92
2021/08/05 05:59:44;;;;;;;9.63;7.10;;;23.60;68.70;;;;;;4980399;28;20058;-91
2021/08/05 06:02:15;;;;;;;10.13;7.57;;;23.60;68.40;;;;;;4979767;28;20049;-92
2021/08/05 06:04:40;;;;;;;10.05;7.35;;;23.60;68.50;;;;;;4997009;28;20416;-90
2021/08/05 06:07:06;;;;;;;8.85;6.63;;;23.60;68.40;;;;;;4994170;28;20033;-91
2021/08/05 06:09:32;;;;;;;9.52;6.80;;;23.60;68.50;;;;;;5015119;28;20037;-91
2021/08/05 06:11:57;;;;;;;8.88;6.95;;;23.60;68.40;;;;;;4995121;28;20018;-91
2021/08/05 06:14:23;;;;;;;7.60;6.38;;;23.70;68.30;;;;;;4988462;28;20147;-90
2021/08/05 06:16:49;;;;;;;7.53;6.25;;;23.80;68.20;;;;;;5016928;28;20053;-89
2021/08/05 06:19:17;;;;;;;9.70;6.75;;;23.80;68.10;;;;;;4998605;28;20032;-89
2021/08/05 06:21:43;;;;;;;9.50;6.82;;;23.90;67.70;;;;;;5024141;28;20080;-91
2021/08/05 06:24:09;;;;;;;8.75;7.28;;;24.00;67.80;;;;;;4994416;28;20425;-91
2021/08/05 06:26:35;;;;;;;10.98;8.43;;;24.10;67.70;;;;;;4992021;28;20034;-91
2021/08/05 06:29:01;;;;;;;10.40;7.60;;;24.10;67.70;;;;;;4995390;28;20026;-91
2021/08/05 06:31:26;;;;;;;10.65;7.93;;;24.30;67.20;;;;;;4994611;28;20034;-93
2021/08/05 06:33:52;;;;;;;9.77;7.57;;;24.40;66.70;;;;;;4996579;28;20022;-90
2021/08/05 06:36:22;;;;;;;10.90;8.10;;;24.50;66.50;;;;;;4998967;28;20397;-92
2021/08/05 06:38:49;;;;;;;9.95;7.20;;;24.60;66.10;;;;;;4998338;28;20022;-92
2021/08/05 06:41:15;;;;;;;9.70;7.13;;;24.70;66.00;;;;;;4998677;28;20033;-92
2021/08/05 06:43:41;;;;;;;9.65;7.38;;;24.70;65.80;;;;;;4998219;28;20061;-93
2021/08/05 06:46:07;;;;;;;7.88;6.25;;;24.70;65.70;;;;;;5018075;28;20021;-91
2021/08/05 06:48:33;;;;;;;9.38;7.05;;;24.80;65.40;;;;;;5018400;28;20030;-91
2021/08/05 06:50:59;;;;;;;8.32;6.60;;;24.90;65.30;;;;;;5017123;28;20029;-93
2021/08/05 06:53:24;;;;;;;67.47;48.17;;;25.00;65.40;;;;;;5015843;28;20524;-93
2021/08/05 06:55:50;;;;;;;31.83;24.58;;;25.20;65.40;;;;;;5016125;28;20468;-93
2021/08/05 06:58:19;;;;;;;20.30;14.68;;;25.30;64.90;;;;;;4998655;28;20116;-92
2021/08/05 07:00:46;;;;;;;13.50;9.60;;;25.40;64.50;;;;;;5015876;28;20473;-91
2021/08/05 07:03:12;;;;;;;11.40;7.95;;;25.50;64.50;;;;;;4997811;28;20335;-92
2021/08/05 07:05:37;;;;;;;11.90;7.47;;;25.70;64.30;;;;;;4997968;28;20113;-90
2021/08/05 07:08:07;;;;;;;11.32;7.60;;;25.90;63.80;;;;;;5015116;28;20113;-91
2021/08/05 07:10:33;;;;;;;14.25;7.80;;;26.10;63.10;;;;;;4997542;28;20510;-90
2021/08/05 07:12:59;;;;;;;10.13;7.50;;;26.20;62.80;;;;;;4998140;28;20042;-91
2021/08/05 07:15:24;;;;;;;8.75;6.50;;;26.20;62.60;;;;;;5015619;28;20382;-92
2021/08/05 07:17:50;;;;;;;8.05;6.25;;;26.30;62.60;;;;;;5013179;28;20041;-92
2021/08/05 07:20:18;;;;;;;10.38;6.50;;;26.50;62.50;;;;;;4995380;28;20026;-92
2021/08/05 07:22:44;;;;;;;8.18;6.55;;;26.70;61.60;;;;;;4995542;28;20032;-93
2021/08/05 07:25:13;;;;;;;8.95;5.70;;;27.00;60.90;;;;;;5013389;28;20033;-92
2021/08/05 07:27:44;;;;;;;8.65;5.72;;;27.10;60.50;;;;;;5013303;28;20425;-95
2021/08/05 07:30:12;;;;;;;6.93;5.60;;;27.30;60.10;;;;;;4996296;28;20030;-93
2021/08/05 07:32:38;;;;;;;7.82;6.40;;;27.50;59.80;;;;;;5014770;28;20022;-92
2021/08/05 07:35:05;;;;;;;7.55;5.45;;;27.70;59.10;;;;;;5015055;28;20030;-92
2021/08/05 07:37:31;;;;;;;7.65;5.50;;;27.80;58.30;;;;;;5014876;28;20026;-94
2021/08/05 07:39:57;;;;;;;7.95;5.00;;;27.90;57.40;;;;;;4998505;28;20029;-95
2021/08/05 07:42:23;;;;;;;6.30;4.57;;;27.90;57.40;;;;;;4998517;28;20049;-95
2021/08/05 07:44:49;;;;;;;7.95;5.07;;;27.90;56.50;;;;;;5015579;28;20033;-93
2021/08/05 07:47:15;;;;;;;5.85;4.60;;;27.90;55.70;;;;;;5014992;28;20101;-94
2021/08/05 07:49:41;;;;;;;6.72;4.65;;;27.90;55.10;;;;;;5015403;28;20053;-95
2021/08/05 07:52:07;;;;;;;5.88;4.80;;;27.90;54.90;;;;;;5014820;28;20026;-93
2021/08/05 07:54:33;;;;;;;7.50;5.18;;;28.00;55.00;;;;;;5014899;28;20448;-93
2021/08/05 07:56:59;;;;;;;7.88;5.30;;;28.00;54.80;;;;;;5015122;28;20044;-94
2021/08/05 07:59:25;;;;;;;7.13;4.55;;;28.10;55.00;;;;;;5014595;28;20101;-93
2021/08/05 08:01:51;;;;;;;9.68;4.72;;;28.10;54.60;;;;;;4997487;28;20033;-94
2021/08/05 08:04:17;;;;;;;6.57;4.60;;;28.20;54.80;;;;;;5015427;28;20455;-94
2021/08/05 08:06:43;;;;;;;8.18;5.30;;;28.30;54.20;;;;;;5015045;28;20030;-93
2021/08/05 08:09:09;;;;;;;8.40;4.95;;;28.40;53.60;;;;;;5015350;28;20104;-93
2021/08/05 08:11:34;;;;;;;5.95;4.25;;;28.50;54.00;;;;;;5015178;28;20032;-93
2021/08/05 08:14:00;;;;;;;9.32;6.35;;;28.80;54.60;;;;;;5015236;28;20026;-94
2021/08/05 08:16:26;;;;;;;6.72;5.20;;;29.10;54.40;;;;;;4998067;28;20045;-93
2021/08/05 08:18:52;;;;;;;8.00;5.10;;;29.30;53.80;;;;;;4997810;28;20030;-96
2021/08/05 08:21:19;;;;;;;6.53;4.53;;;29.60;52.70;;;;;;5019869;28;20085;-93
2021/08/05 08:23:46;;;;;;;5.82;4.35;;;29.80;53.00;;;;;;5001570;28;20048;-95
2021/08/05 08:26:12;;;;;;;5.88;4.32;;;30.00;52.50;;;;;;4999483;28;20034;-93
2021/08/05 08:28:38;;;;;;;7.10;4.25;;;30.20;52.60;;;;;;5005629;28;20025;-93
2021/08/05 08:31:04;;;;;;;6.50;3.90;;;30.50;53.00;;;;;;5013031;28;20089;-94
2021/08/05 08:33:30;;;;;;;5.43;3.55;;;30.90;51.50;;;;;;5031329;28;20066;-95
2021/08/05 08:35:55;;;;;;;6.57;4.25;;;31.10;50.60;;;;;;5031756;28;20030;-93
2021/08/05 08:38:23;;;;;;;5.07;4.10;;;31.10;50.40;;;;;;5037681;28;20060;-94
2021/08/05 08:40:55;;;;;;;6.18;3.65;;;31.20;50.30;;;;;;5020234;28;20030;-92
2021/08/05 08:43:21;;;;;;;4.43;3.60;;;31.30;50.30;;;;;;5021315;28;20022;-95
2021/08/05 08:45:51;;;;;;;5.78;3.60;;;31.30;50.60;;;;;;5023020;28;20033;-94
2021/08/05 08:48:17;;;;;;;5.15;3.90;;;31.40;50.00;;;;;;5019900;28;20033;-94
2021/08/05 08:50:44;;;;;;;6.68;4.03;;;31.40;50.10;;;;;;5002127;28;20165;-94
2021/08/05 08:53:11;;;;;;;4.25;3.38;;;31.40;49.50;;;;;;5001378;28;20030;-94
2021/08/05 08:55:41;;;;;;;5.07;3.50;;;31.50;49.00;;;;;;5017106;28;20026;-96
2021/08/05 08:58:07;;;;;;;6.05;3.75;;;31.50;48.70;;;;;;5017791;28;20026;-94
2021/08/05 09:00:36;;;;;;;4.72;3.80;;;31.40;48.80;;;;;;5014831;28;20032;-95
2021/08/05 09:03:03;;;;;;;;;;;31.40;48.90;;;;;;5015458;28;20357;-95
2021/08/05 09:05:29;;;;;;;3.90;3.35;;;31.20;49.20;;;;;;5015028;28;19917;-94
2021/08/05 09:07:57;;;;;;;4.55;3.40;;;31.40;49.40;;;;;;5018537;28;20026;-95
2021/08/05 09:10:24;;;;;;;3.83;3.20;;;31.60;49.10;;;;;;5019647;28;20049;-93
2021/08/05 09:12:55;;;;;;;4.00;3.13;;;31.70;48.50;;;;;;5003536;28;20034;-94
2021/08/05 09:15:52;;;;;;;4.72;3.50;;;31.80;47.60;;;;;;5001429;28;20069;-94
2021/08/05 09:18:41;;;;;;;5.35;3.55;;;32.10;47.70;;;;;;5018470;28;20109;-94
2021/08/05 09:21:19;;;;;;;5.73;3.23;;;32.40;45.50;;;;;;5018500;28;20491;-95
2021/08/05 09:24:07;;;;;;;3.72;3.00;;;32.40;46.00;;;;;;5018540;28;20034;-94
2021/08/05 09:26:36;;;;;;;5.18;3.40;;;32.40;44.80;;;;;;5002441;28;20037;-93
2021/08/05 09:29:13;;;;;;;9.30;3.97;;;32.60;46.20;;;;;;5019214;28;20104;-93
2021/08/05 09:31:57;;;;;;;3.72;2.75;;;32.70;44.30;;;;;;5003151;28;20030;-94
2021/08/05 09:34:35;;;;;;;4.03;2.83;;;32.70;43.80;;;;;;5024251;28;20117;-94
2021/08/05 09:37:07;;;;;;;4.93;2.85;;;32.70;44.80;;;;;;5025822;28;20040;-92
2021/08/05 09:39:40;;;;;;;4.40;2.97;;;32.90;44.20;;;;;;5031088;28;20083;-91
2021/08/05 09:42:07;;;;;;;4.60;3.13;;;33.10;43.80;;;;;;5033449;28;20108;-94
2021/08/05 09:44:38;;;;;;;4.22;3.03;;;33.20;43.90;;;;;;5000709;28;20026;-94
2021/08/05 09:47:16;;;;;;;4.97;2.92;;;33.20;43.50;;;;;;5000525;28;20062;-94
2021/08/05 09:49:49;;;;;;;4.13;2.78;;;33.20;43.30;;;;;;5000888;28;20057;-94
2021/08/05 09:52:28;;;;;;;3.83;3.10;;;33.00;42.90;;;;;;5018254;28;20017;-94
2021/08/05 09:54:54;;;;;;;9.27;2.92;;;32.70;42.80;;;;;;5018397;28;20022;-94
2021/08/05 09:57:26;;;;;;;7.18;3.33;;;32.50;42.70;;;;;;5000236;28;20030;-94
2021/08/05 10:00:18;;;;;;;3.30;2.80;;;32.60;43.10;;;;;;5001482;28;20120;-95
2021/08/05 10:02:55;;;;;;;6.30;3.30;;;32.80;42.60;;;;;;5018593;28;20096;-94
2021/08/05 10:05:25;;;;;;;4.40;3.17;;;32.80;42.70;;;;;;5002811;28;20040;-94
2021/08/05 10:07:56;;;;;;;3.92;3.15;;;32.80;42.50;;;;;;5004494;28;20034;-94
2021/08/05 10:10:27;;;;;;;3.95;3.00;;;32.70;42.60;;;;;;5003327;28;20044;-95
2021/08/05 10:12:58;;;;;;;4.70;3.03;;;32.50;43.10;;;;;;5003738;28;20097;-93
2021/08/05 10:15:25;;;;;;;3.60;3.00;;;32.50;43.60;;;;;;5003801;28;20428;-94
2021/08/05 10:17:56;;;;;;;5.32;3.30;;;32.70;43.40;;;;;;5001355;28;20073;-94
2021/08/05 10:20:29;;;;;;;6.63;3.20;;;33.00;41.90;;;;;;5021754;28;20670;-94
2021/08/05 10:22:56;;;;;;;4.50;3.20;;;33.20;41.30;;;;;;5004595;28;20137;-96
2021/08/05 10:25:25;;;;;;;4.60;3.38;;;33.20;41.20;;;;;;5003682;28;20038;-95
2021/08/05 10:28:01;;;;;;;4.17;3.00;;;33.40;41.30;;;;;;5024397;28;20060;-94
2021/08/05 10:30:27;;;;;;;5.75;3.00;;;33.60;41.10;;;;;;5004323;28;20124;-93
2021/08/05 10:32:54;;;;;;;3.75;3.33;;;33.70;40.80;;;;;;5008396;28;20097;-94
2021/08/05 10:35:23;;;;;;;3.90;2.80;;;33.80;40.80;;;;;;5006065;28;20033;-95
2021/08/05 10:37:50;;;;;;;5.07;3.08;;;34.10;40.40;;;;;;5022874;28;20045;-96
2021/08/05 10:40:17;;;;;;;4.78;3.20;;;34.30;40.10;;;;;;5005695;28;20041;-95
2021/08/05 10:42:44;;;;;;;3.15;2.85;;;34.40;39.90;;;;;;5023105;28;20030;-94
2021/08/05 10:45:15;;;;;;;3.72;3.08;;;34.60;39.60;;;;;;5022027;28;20026;-94
2021/08/05 10:47:46;;;;;;;3.60;2.70;;;34.70;38.60;;;;;;5019351;28;20061;-95
2021/08/05 10:50:15;;;;;;;3.53;2.80;;;34.70;39.50;;;;;;5001895;28;20034;-94
2021/08/05 10:52:51;;;;;;;2.90;2.65;;;34.90;38.50;;;;;;4999685;28;20197;-92
2021/08/05 10:55:27;;;;;;;3.63;2.90;;;34.90;38.80;;;;;;5017647;28;20100;-95
2021/08/05 10:58:14;;;;;;;4.47;2.80;;;34.90;38.60;;;;;;5021059;28;20034;-95
2021/08/05 11:00:59;;;;;;;4.75;2.90;;;35.10;37.50;;;;;;5030790;28;20053;-96
2021/08/05 11:03:35;;;;;;;4.53;3.00;;;35.10;37.80;;;;;;5007771;28;20038;-95
2021/08/05 11:06:07;;;;;;;6.38;3.28;;;35.10;38.30;;;;;;5001680;28;20045;-93
2021/08/05 11:08:33;;;;;;;8.73;3.53;;;35.10;38.70;;;;;;5000385;28;20172;-95
2021/08/05 11:11:27;;;;;;;6.05;3.20;;;35.20;39.10;;;;;;5016816;28;20372;-94
2021/08/05 11:13:59;;;;;;;5.40;3.72;;;35.30;38.70;;;;;;4998616;28;20091;-95
2021/08/05 11:16:52;;;;;;;6.55;3.60;;;35.50;39.20;;;;;;4998764;28;20048;-96
2021/08/05 11:19:23;;;;;;;4.68;3.55;;;35.70;39.40;;;;;;4999101;28;20042;-94
2021/08/05 11:21:49;;;;;;;6.00;3.80;;;35.80;38.90;;;;;;4998549;28;20109;-94
2021/08/05 11:24:39;;;;;;;5.97;3.90;;;35.60;38.90;;;;;;5016581;28;20475;-94
2021/08/05 11:27:16;;;;;;;5.70;3.80;;;35.50;39.40;;;;;;4998446;28;20034;-93
2021/08/05 11:29:41;;;;;;;11.68;9.57;;;35.60;39.70;;;;;;4998047;28;20242;-89
2021/08/05 11:32:23;;;;;;;10.15;8.10;;;35.50;40.00;;;;;;5015664;28;20065;-94
2021/08/05 11:34:57;;;;;;;6.20;5.60;;;35.40;40.20;;;;;;4996984;28;20080;-93
2021/08/05 11:37:26;;;;;;;5.95;5.00;;;35.50;40.30;;;;;;5018362;28;20029;-92
2021/08/05 11:40:00;;;;;;;8.27;4.30;;;35.70;39.70;;;;;;5001111;28;20025;-90
2021/08/05 11:42:29;;;;;;;7.35;4.40;;;35.90;39.30;;;;;;5027399;28;20057;-94
2021/08/05 11:45:02;;;;;;;8.00;4.00;;;36.10;39.10;;;;;;5015517;28;20036;-94
2021/08/05 11:47:34;;;;;;;6.20;4.05;;;36.30;38.60;;;;;;5015783;28;20127;-95
2021/08/05 11:50:21;;;;;;;3.60;3.30;;;36.40;38.40;;;;;;5030140;28;20535;-94
2021/08/05 11:52:51;;;;;;;4.50;3.30;;;36.40;38.40;;;;;;4975870;28;20091;-93
2021/08/05 11:55:25;;;;;;;4.05;3.50;;;36.40;38.80;;;;;;4995964;28;20034;-94
2021/08/05 11:58:03;;;;;;;4.60;3.67;;;36.40;38.60;;;;;;5002523;28;20030;-93
2021/08/05 12:00:40;;;;;;;5.18;3.50;;;36.20;38.70;;;;;;4987772;28;20358;-92
2021/08/05 12:03:07;;;;;;;5.30;3.78;;;35.70;39.30;;;;;;4995531;28;20026;-93
2021/08/05 12:05:36;;;;;;;4.43;3.50;;;35.00;39.90;;;;;;5015470;28;20466;-93
2021/08/05 12:08:02;;;;;;;;;;;34.60;40.60;;;;;;4989175;28;20085;-93
2021/08/05 12:10:39;;;;;;;6.43;4.05;;;34.10;42.20;;;;;;4985614;28;19910;-93
2021/08/05 12:13:15;;;;;;;4.72;3.35;;;33.80;41.70;;;;;;5012234;28;20486;-94
2021/08/05 12:15:46;;;;;;;4.35;3.50;;;33.80;41.90;;;;;;5013994;28;20088;-96
2021/08/05 12:18:18;;;;;;;6.82;4.50;;;33.70;42.00;;;;;;5011292;28;20034;-94
2021/08/05 12:21:05;;;;;;;6.13;3.70;;;33.60;41.70;;;;;;4996211;28;20024;-94
2021/08/05 12:23:42;;;;;;;5.45;3.85;;;33.40;42.20;;;;;;5001535;28;20022;-94
2021/08/05 12:26:18;;;;;;;4.72;4.10;;;33.50;42.60;;;;;;4992726;28;20030;-94
2021/08/05 12:28:45;;;;;;;4.82;4.00;;;33.90;42.50;;;;;;4994876;28;20384;-94
2021/08/05 12:31:18;;;;;;;5.57;3.90;;;34.20;41.80;;;;;;5001412;28;20033;-94
2021/08/05 12:33:44;;;;;;;4.88;3.55;;;34.30;41.50;;;;;;4998187;28;20037;-95
2021/08/05 12:36:18;;;;;;;4.68;3.28;;;34.50;41.40;;;;;;4996749;28;20567;-93
2021/08/05 12:38:53;;;;;;;4.90;3.40;;;34.70;40.90;;;;;;5001392;28;20034;-92
2021/08/05 12:41:37;;;;;;;4.57;3.65;;;34.70;41.00;;;;;;5018075;28;20026;-91
2021/08/05 12:44:11;;;;;;;3.97;3.58;;;34.70;41.30;;;;;;5005337;28;20037;-92
2021/08/05 12:46:44;;;;;;;5.75;3.75;;;34.80;40.80;;;;;;5011888;28;20030;-93
2021/08/05 12:49:11;;;;;;;7.07;4.50;;;34.80;41.00;;;;;;5017102;28;20033;-93
2021/08/05 12:51:37;;;;;;;4.07;3.65;;;35.20;40.80;;;;;;5018566;28;20021;-94
2021/08/05 12:54:20;;;;;;;7.15;4.38;;;35.40;41.10;;;;;;4995181;28;20137;-93